Time;durP1;ratioP1;P1;durP2;ratioP2;P2;SDS_P1;SDS_P2;PMS_P1;PMS_P2;Temp;Humidity;BMP_temperature;BMP_pressure;BME280_temperature;BME280_humidity;BME280_pressure;Samples;Min_cycle;Max_cycle;Signal;HPM_P1;HPM_P2
2023/06/24 00:00:11;;;;;;;5.10;4.63;;;29.00;60.50;;;;;;5114305;28;20031;-67
2023/06/24 00:02:38;;;;;;;5.60;4.95;;;29.00;60.60;;;;;;5112475;28;20413;-69
2023/06/24 00:05:06;;;;;;;8.05;5.20;;;29.00;60.60;;;;;;5110775;28;20030;-69
2023/06/24 00:07:35;;;;;;;7.32;3.70;;;29.00;60.60;;;;;;5113497;28;20105;-69
2023/06/24 00:10:03;;;;;;;8.05;4.70;;;29.00;60.70;;;;;;5113761;28;20047;-69
2023/06/24 00:12:29;;;;;;;5.80;4.45;;;29.00;60.70;;;;;;5077265;28;20376;-69
2023/06/24 00:14:55;;;;;;;7.40;5.20;;;29.20;60.80;;;;;;5113367;28;20043;-68
2023/06/24 00:17:21;;;;;;;7.22;4.47;;;29.10;60.80;;;;;;5112043;28;20061;-69
2023/06/24 00:19:47;;;;;;;6.15;4.75;;;29.00;60.70;;;;;;5113006;28;20047;-68
2023/06/24 00:22:13;;;;;;;5.88;5.10;;;29.00;60.90;;;;;;5113207;28;20084;-69
2023/06/24 00:24:39;;;;;;;5.85;5.25;;;29.00;61.00;;;;;;5113444;28;20027;-69
2023/06/24 00:27:06;;;;;;;8.20;5.05;;;29.00;61.00;;;;;;5111972;28;20444;-69
2023/06/24 00:29:32;;;;;;;6.10;5.45;;;29.10;61.00;;;;;;5113300;28;20035;-69
2023/06/24 00:31:58;;;;;;;6.78;5.45;;;29.00;61.00;;;;;;5093875;28;20044;-69
2023/06/24 00:34:23;;;;;;;7.05;6.00;;;29.00;61.10;;;;;;5111797;28;20497;-69
2023/06/24 00:36:52;;;;;;;7.53;5.45;;;28.80;60.60;;;;;;5111854;28;20051;-69
2023/06/24 00:39:19;;;;;;;5.38;4.88;;;28.90;60.60;;;;;;5111370;28;20153;-69
2023/06/24 00:41:45;;;;;;;6.53;3.92;;;28.90;60.60;;;;;;5111701;28;20618;-69
2023/06/24 00:44:11;;;;;;;11.07;5.60;;;28.90;60.60;;;;;;5112955;28;20051;-69
2023/06/24 00:46:39;;;;;;;6.88;4.72;;;28.90;60.60;;;;;;5112825;28;20032;-69
2023/06/24 00:49:06;;;;;;;5.53;4.60;;;28.80;60.60;;;;;;5111629;28;20036;-69
2023/06/24 00:51:34;;;;;;;6.05;4.85;;;28.90;60.70;;;;;;5112461;28;20027;-69
2023/06/24 00:54:00;;;;;;;7.10;5.38;;;28.80;60.70;;;;;;5113006;28;20040;-68
2023/06/24 00:56:33;;;;;;;9.32;3.63;;;28.90;60.70;;;;;;5111321;28;20063;-69
2023/06/24 00:59:01;;;;;;;6.38;3.72;;;28.90;60.70;;;;;;5112624;28;20028;-69
2023/06/24 01:01:35;;;;;;;7.18;4.18;;;28.90;60.70;;;;;;5110860;28;20055;-69
2023/06/24 01:04:03;;;;;;;6.72;4.90;;;28.90;60.80;;;;;;5112530;28;20085;-69
2023/06/24 01:06:29;;;;;;;6.15;5.20;;;29.00;61.30;;;;;;5110411;28;20027;-69
2023/06/24 01:09:04;;;;;;;4.68;4.15;;;29.00;61.30;;;;;;5091482;28;20032;-69
2023/06/24 01:11:30;;;;;;;5.60;5.00;;;28.90;60.90;;;;;;5091874;28;20479;-69
2023/06/24 01:13:56;;;;;;;7.55;4.95;;;29.00;61.40;;;;;;5092114;28;20024;-69
2023/06/24 01:16:49;;;;;;;5.45;4.72;;;28.80;60.90;;;;;;5091908;28;20620;-68
2023/06/24 01:19:36;;;;;;;4.47;4.07;;;29.00;61.50;;;;;;5048888;28;20141;-69
2023/06/24 01:22:02;;;;;;;7.55;4.97;;;28.80;61.00;;;;;;5048909;28;20060;-69
2023/06/24 01:24:45;;;;;;;6.70;4.72;;;28.80;61.00;;;;;;5049248;28;20075;-69
2023/06/24 01:27:44;;;;;;;6.93;4.95;;;28.90;61.00;;;;;;5049023;28;20068;-69
2023/06/24 01:30:42;;;;;;;4.90;3.65;;;28.80;61.00;;;;;;5048860;28;20064;-69
2023/06/24 01:33:13;;;;;;;7.05;3.70;;;28.80;60.90;;;;;;5048949;28;20041;-68
2023/06/24 01:35:41;;;;;;;4.47;4.00;;;28.90;60.90;;;;;;5032245;28;20057;-68
2023/06/24 01:38:32;;;;;;;5.30;4.53;;;28.80;60.90;;;;;;5067405;28;20422;-68
2023/06/24 01:41:00;;;;;;;4.82;4.10;;;28.80;60.90;;;;;;5068623;28;20043;-68
2023/06/24 01:43:27;;;;;;;5.85;4.75;;;28.80;61.00;;;;;;5051733;28;20492;-69
2023/06/24 01:45:55;;;;;;;5.35;4.85;;;28.80;61.00;;;;;;5068852;28;20070;-69
2023/06/24 01:48:27;;;;;;;4.95;4.45;;;28.90;61.10;;;;;;5068894;28;20044;-69
2023/06/24 01:51:06;;;;;;;6.97;4.15;;;28.70;61.10;;;;;;5098593;28;20707;-69
2023/06/24 01:53:34;;;;;;;5.65;4.35;;;28.80;61.10;;;;;;5089873;28;20051;-70
2023/06/24 01:56:02;;;;;;;6.70;4.13;;;28.70;61.10;;;;;;5089955;28;20043;-69
2023/06/24 01:58:31;;;;;;;11.80;4.25;;;28.80;61.10;;;;;;5090074;28;20434;-68
2023/06/24 02:00:58;;;;;;;4.80;4.05;;;28.80;61.10;;;;;;5089861;28;20118;-69
2023/06/24 02:03:25;;;;;;;5.03;4.22;;;28.90;61.10;;;;;;5091547;28;20028;-69
2023/06/24 02:05:53;;;;;;;5.78;4.28;;;28.80;61.10;;;;;;5091458;28;20040;-69
2023/06/24 02:08:21;;;;;;;5.75;4.30;;;28.70;61.10;;;;;;5101614;28;20051;-69
2023/06/24 02:10:49;;;;;;;5.65;4.00;;;28.80;61.10;;;;;;5111325;28;20100;-68
2023/06/24 02:13:17;;;;;;;5.72;4.82;;;28.80;61.10;;;;;;5111841;28;20051;-69
2023/06/24 02:15:45;;;;;;;7.38;4.50;;;28.80;61.10;;;;;;5110313;28;20034;-69
2023/06/24 02:18:15;;;;;;;5.88;3.85;;;28.70;61.10;;;;;;5110175;28;20456;-69
2023/06/24 02:20:43;;;;;;;3.88;3.50;;;28.80;61.10;;;;;;5111107;28;20494;-69
2023/06/24 02:23:11;;;;;;;3.90;3.50;;;28.80;61.10;;;;;;5110012;28;20131;-68
2023/06/24 02:25:39;;;;;;;4.68;3.90;;;28.90;61.20;;;;;;5110080;28;20040;-69
2023/06/24 02:28:07;;;;;;;5.60;4.28;;;28.80;61.20;;;;;;5129163;28;20038;-69
2023/06/24 02:30:38;;;;;;;5.68;3.92;;;28.80;61.20;;;;;;5129194;28;20043;-69
2023/06/24 02:33:05;;;;;;;6.13;4.05;;;28.80;61.20;;;;;;5108676;28;20042;-69
2023/06/24 02:35:31;;;;;;;4.90;3.80;;;28.80;61.20;;;;;;5108884;28;20079;-69
2023/06/24 02:37:57;;;;;;;4.18;3.78;;;28.80;61.20;;;;;;5108634;28;20084;-69
2023/06/24 02:40:23;;;;;;;4.95;4.28;;;28.80;61.20;;;;;;5091804;28;20793;-69
2023/06/24 02:42:49;;;;;;;6.25;4.70;;;28.80;61.20;;;;;;5108546;28;20035;-69
2023/06/24 02:45:16;;;;;;;6.63;3.60;;;28.70;61.30;;;;;;5108829;28;20138;-68
2023/06/24 02:47:45;;;;;;;6.38;3.95;;;28.70;61.30;;;;;;5108647;28;20422;-68
2023/06/24 02:50:12;;;;;;;6.68;3.65;;;28.70;61.30;;;;;;5108458;28;20035;-69
2023/06/24 02:52:39;;;;;;;4.25;3.25;;;28.70;61.30;;;;;;5074315;28;20039;-69
2023/06/24 02:55:09;;;;;;;4.72;3.60;;;28.70;61.30;;;;;;5091714;28;20046;-68
2023/06/24 02:57:46;;;;;;;5.88;3.58;;;28.80;61.30;;;;;;5090834;28;20126;-69
2023/06/24 03:00:33;;;;;;;5.97;3.75;;;28.80;61.30;;;;;;5048025;28;20033;-69
2023/06/24 03:03:22;;;;;;;4.88;3.65;;;28.80;61.30;;;;;;5040235;28;20049;-69
2023/06/24 03:05:56;;;;;;;5.53;3.72;;;28.80;61.30;;;;;;5055207;28;20522;-69
2023/06/24 03:08:24;;;;;;;4.32;3.75;;;28.80;61.30;;;;;;5038553;28;20064;-69
2023/06/24 03:10:54;;;;;;;4.05;3.65;;;28.80;61.30;;;;;;5054914;28;20123;-69
2023/06/24 03:13:23;;;;;;;4.78;3.88;;;28.70;61.30;;;;;;5054810;28;20036;-68
2023/06/24 03:16:12;;;;;;;6.15;4.30;;;28.70;61.30;;;;;;5054711;28;20037;-68
2023/06/24 03:18:45;;;;;;;4.10;3.63;;;28.80;61.30;;;;;;5054831;28;20036;-69
2023/06/24 03:21:11;;;;;;;5.38;4.07;;;28.80;61.30;;;;;;5071028;28;20048;-69
2023/06/24 03:23:40;;;;;;;4.35;3.70;;;28.80;61.30;;;;;;5071565;28;20056;-69
2023/06/24 03:26:07;;;;;;;6.82;4.15;;;28.60;61.30;;;;;;5054652;28;20043;-69
2023/06/24 03:28:33;;;;;;;5.00;4.20;;;28.80;61.30;;;;;;5071459;28;20053;-69
2023/06/24 03:31:08;;;;;;;4.90;3.80;;;28.60;61.30;;;;;;5054526;28;20032;-69
2023/06/24 03:33:34;;;;;;;5.88;4.18;;;28.70;61.30;;;;;;5054117;28;20359;-68
2023/06/24 03:36:01;;;;;;;5.65;3.50;;;28.60;61.30;;;;;;5054262;28;20074;-69
2023/06/24 03:38:31;;;;;;;7.20;4.10;;;28.70;61.30;;;;;;5070925;28;20047;-68
2023/06/24 03:40:58;;;;;;;4.65;4.20;;;28.60;61.40;;;;;;5065231;28;20044;-69
2023/06/24 03:43:24;;;;;;;6.90;3.72;;;28.70;61.50;;;;;;5108085;28;20055;-69
2023/06/24 03:45:50;;;;;;;5.30;4.43;;;28.60;61.50;;;;;;5112987;28;20067;-69
2023/06/24 03:48:16;;;;;;;3.75;3.20;;;28.60;61.50;;;;;;5112661;28;20114;-69
2023/06/24 03:50:42;;;;;;;5.18;4.00;;;28.70;61.50;;;;;;5112753;28;20038;-69
2023/06/24 03:53:08;;;;;;;5.50;3.83;;;28.60;61.50;;;;;;5114125;28;20387;-69
2023/06/24 03:55:35;;;;;;;3.90;3.50;;;28.70;61.50;;;;;;5112975;28;20043;-68
2023/06/24 03:58:01;;;;;;;4.70;3.90;;;28.70;61.50;;;;;;5112750;28;20040;-68
2023/06/24 04:00:27;;;;;;;5.70;4.57;;;28.70;61.00;;;;;;5095665;28;20034;-68
2023/06/24 04:02:53;;;;;;;7.47;4.80;;;28.60;60.80;;;;;;5114064;28;20031;-68
2023/06/24 04:05:21;;;;;;;8.15;5.25;;;28.60;59.90;;;;;;5112618;28;20111;-68
2023/06/24 04:07:50;;;;;;;9.32;5.53;;;28.60;60.40;;;;;;5112498;28;20099;-68
2023/06/24 04:10:17;;;;;;;6.40;5.00;;;28.60;60.40;;;;;;5112480;28;20118;-69
2023/06/24 04:12:45;;;;;;;9.10;5.28;;;28.70;60.40;;;;;;5108600;28;20035;-69
2023/06/24 04:15:11;;;;;;;6.05;4.60;;;28.70;60.30;;;;;;5111990;28;20194;-69
2023/06/24 04:17:37;;;;;;;6.85;4.82;;;28.60;60.30;;;;;;5112198;28;20444;-70
2023/06/24 04:20:07;;;;;;;6.10;4.60;;;28.60;60.30;;;;;;5112185;28;20455;-69
2023/06/24 04:22:33;;;;;;;5.25;4.15;;;29.00;65.50;;;;;;5110792;28;20499;-71
2023/06/24 04:24:59;;;;;;;8.20;4.90;;;29.50;65.80;;;;;;5077126;28;20055;-70
2023/06/24 04:27:25;;;;;;;6.78;5.20;;;29.40;66.20;;;;;;5090390;28;20040;-71
2023/06/24 04:29:51;;;;;;;8.95;5.70;;;29.50;66.90;;;;;;5050000;28;20040;-71
2023/06/24 04:32:17;;;;;;;9.57;6.85;;;29.40;63.40;;;;;;5049719;28;20433;-71
2023/06/24 04:34:43;;;;;;;8.35;6.53;;;29.20;62.70;;;;;;5050083;28;20134;-69
2023/06/24 04:37:10;;;;;;;7.75;5.65;;;29.10;62.80;;;;;;5029693;28;20053;-70
2023/06/24 04:39:37;;;;;;;12.00;5.85;;;29.10;62.90;;;;;;5030012;28;20434;-70
2023/06/24 04:42:03;;;;;;;7.03;6.03;;;29.00;63.20;;;;;;5029567;28;20145;-70
2023/06/24 04:44:29;;;;;;;7.22;5.75;;;29.00;63.40;;;;;;5029704;28;20061;-70
2023/06/24 04:46:55;;;;;;;8.73;4.97;;;28.90;62.70;;;;;;5029947;28;20053;-70
2023/06/24 04:49:21;;;;;;;6.80;5.18;;;28.90;62.80;;;;;;5029805;28;20041;-71
2023/06/24 04:51:47;;;;;;;6.50;5.00;;;29.00;63.60;;;;;;5029791;28;20061;-71
2023/06/24 04:54:13;;;;;;;8.10;6.30;;;29.00;63.70;;;;;;5029581;28;20868;-71
2023/06/24 04:56:40;;;;;;;4.78;4.35;;;28.90;63.10;;;;;;5029844;28;20051;-71
2023/06/24 04:59:06;;;;;;;5.35;4.55;;;28.90;63.30;;;;;;5047629;28;20037;-70
2023/06/24 05:01:32;;;;;;;8.07;4.93;;;28.90;63.40;;;;;;5068536;28;20113;-70
2023/06/24 05:03:58;;;;;;;5.90;4.43;;;28.90;62.70;;;;;;5089748;28;20031;-69
2023/06/24 05:06:24;;;;;;;7.35;4.82;;;28.80;62.60;;;;;;5089695;28;20039;-68
2023/06/24 05:08:50;;;;;;;7.75;4.70;;;29.00;63.30;;;;;;5072965;28;20411;-68
2023/06/24 05:11:16;;;;;;;6.95;5.03;;;28.80;61.40;;;;;;5089581;28;20047;-68
2023/06/24 05:13:42;;;;;;;8.20;5.40;;;28.80;60.60;;;;;;5075496;28;20113;-70
2023/06/24 05:16:08;;;;;;;8.73;3.97;;;28.80;59.80;;;;;;5112357;28;20122;-70
2023/06/24 05:18:34;;;;;;;12.30;5.53;;;28.90;60.10;;;;;;5112680;28;20114;-70
2023/06/24 05:21:00;;;;;;;8.05;5.75;;;28.80;60.10;;;;;;5112148;27;20032;-70
2023/06/24 05:23:26;;;;;;;9.80;6.07;;;28.90;60.30;;;;;;5112448;28;20039;-70
2023/06/24 05:25:52;;;;;;;9.52;5.70;;;28.90;60.20;;;;;;5112030;28;20039;-70
2023/06/24 05:28:18;;;;;;;9.63;5.88;;;29.10;61.60;;;;;;5112296;28;20532;-70
2023/06/24 05:30:45;;;;;;;7.28;6.15;;;29.00;61.10;;;;;;5112236;27;20020;-70
2023/06/24 05:33:11;;;;;;;6.85;6.15;;;29.00;62.60;;;;;;5112177;28;20059;-70
2023/06/24 05:35:40;;;;;;;11.25;6.30;;;29.20;61.90;;;;;;5112265;28;20063;-70
2023/06/24 05:38:06;;;;;;;6.47;5.45;;;29.10;61.10;;;;;;5111958;28;20039;-70
2023/06/24 05:40:32;;;;;;;8.52;6.32;;;29.20;60.90;;;;;;5112073;28;20039;-71
2023/06/24 05:42:59;;;;;;;8.32;6.43;;;29.10;62.70;;;;;;5093350;28;20126;-71
2023/06/24 05:45:25;;;;;;;8.60;5.72;;;29.10;60.70;;;;;;5111787;28;20028;-70
2023/06/24 05:47:51;;;;;;;11.30;6.88;;;29.00;60.80;;;;;;5111862;28;20023;-71
2023/06/24 05:50:17;;;;;;;8.32;6.30;;;29.10;61.00;;;;;;5112034;28;20043;-71
2023/06/24 05:52:43;;;;;;;7.65;5.57;;;29.20;61.00;;;;;;5111682;28;20054;-70
2023/06/24 05:55:09;;;;;;;7.65;5.90;;;29.20;63.20;;;;;;5111848;28;20475;-70
2023/06/24 05:57:35;;;;;;;10.75;5.78;;;29.20;63.40;;;;;;5111664;28;20479;-68
2023/06/24 06:00:03;;;;;;;9.68;5.63;;;29.10;63.90;;;;;;5111775;28;20064;-67
2023/06/24 06:02:38;;;;;;;9.35;5.18;;;29.10;62.80;;;;;;5094653;28;20059;-70
2023/06/24 06:05:04;;;;;;;7.38;5.13;;;29.20;61.00;;;;;;5111655;28;20436;-68
2023/06/24 06:07:30;;;;;;;9.38;5.75;;;29.10;61.00;;;;;;5111627;28;20031;-70
2023/06/24 06:09:57;;;;;;;6.30;4.85;;;29.10;60.60;;;;;;5110415;28;20486;-69
2023/06/24 06:12:23;;;;;;;8.75;5.22;;;29.10;60.60;;;;;;5105961;28;20032;-71
2023/06/24 06:14:48;;;;;;;6.03;4.88;;;29.10;60.60;;;;;;5099870;28;20034;-68
2023/06/24 06:17:15;;;;;;;6.95;4.47;;;29.20;60.70;;;;;;5110215;28;20116;-68
2023/06/24 06:19:41;;;;;;;10.93;5.32;;;29.20;60.40;;;;;;5111573;28;20028;-67
2023/06/24 06:22:07;;;;;;;5.95;4.28;;;29.10;61.00;;;;;;5110089;28;20036;-68
2023/06/24 06:24:34;;;;;;;7.82;4.80;;;29.20;60.30;;;;;;5110852;28;20088;-67
2023/06/24 06:26:59;;;;;;;8.60;4.45;;;29.20;60.10;;;;;;5093100;28;20031;-68
2023/06/24 06:29:26;;;;;;;7.55;4.40;;;29.30;60.00;;;;;;5110199;28;20047;-67
2023/06/24 06:31:52;;;;;;;6.40;4.97;;;29.20;60.00;;;;;;5111155;28;20035;-66
2023/06/24 06:34:20;;;;;;;6.50;4.90;;;29.20;60.00;;;;;;5111380;28;20044;-68
2023/06/24 06:36:46;;;;;;;6.07;4.78;;;29.20;60.00;;;;;;5112605;28;20039;-67
2023/06/24 06:39:12;;;;;;;6.20;3.33;;;29.10;60.20;;;;;;5115370;28;20030;-66
2023/06/24 06:41:38;;;;;;;7.28;4.22;;;29.30;60.00;;;;;;5114381;28;20036;-67
2023/06/24 06:44:04;;;;;;;8.48;4.20;;;29.30;59.50;;;;;;5114043;28;20044;-67
2023/06/24 06:46:30;;;;;;;4.35;3.90;;;29.20;59.70;;;;;;5115589;28;20036;-66
2023/06/24 06:48:56;;;;;;;10.05;4.85;;;29.10;59.90;;;;;;5112972;28;20526;-70
2023/06/24 06:51:24;;;;;;;5.55;4.13;;;29.20;60.00;;;;;;5115236;28;20076;-68
2023/06/24 06:53:50;;;;;;;9.60;5.28;;;29.00;60.20;;;;;;5114646;28;20543;-67
2023/06/24 06:56:24;;;;;;;6.07;4.72;;;29.20;60.10;;;;;;5115089;28;20138;-67
2023/06/24 06:58:51;;;;;;;9.77;4.78;;;29.20;60.00;;;;;;5114582;28;20550;-67
2023/06/24 07:01:18;;;;;;;15.27;5.57;;;29.20;60.10;;;;;;5115117;28;20035;-66
2023/06/24 07:03:44;;;;;;;9.93;5.10;;;29.10;59.90;;;;;;5114476;28;20032;-67
2023/06/24 07:06:10;;;;;;;7.32;4.78;;;29.10;60.00;;;;;;5114822;28;20372;-68
2023/06/24 07:08:36;;;;;;;6.85;3.50;;;29.10;60.00;;;;;;5114993;28;20027;-68
2023/06/24 07:11:03;;;;;;;9.90;5.00;;;29.20;60.10;;;;;;5114737;28;20024;-67
2023/06/24 07:13:29;;;;;;;8.60;4.70;;;29.20;60.30;;;;;;5105156;28;20036;-67
2023/06/24 07:15:55;;;;;;;6.70;4.25;;;29.00;60.30;;;;;;5094380;28;20040;-69
2023/06/24 07:18:21;;;;;;;5.35;4.25;;;29.10;60.30;;;;;;5112433;28;20102;-69
2023/06/24 07:20:47;;;;;;;6.75;4.28;;;29.20;60.20;;;;;;5114397;27;20060;-69
2023/06/24 07:23:13;;;;;;;10.20;5.38;;;29.10;60.30;;;;;;5113070;28;20046;-68
2023/06/24 07:25:39;;;;;;;6.55;4.38;;;29.20;60.40;;;;;;5114546;27;20495;-68
2023/06/24 07:28:05;;;;;;;8.15;4.80;;;29.20;60.60;;;;;;5114925;28;20102;-68
2023/06/24 07:30:31;;;;;;;5.40;4.25;;;29.20;60.60;;;;;;5114462;28;20035;-68
2023/06/24 07:32:57;;;;;;;7.50;4.07;;;29.10;60.60;;;;;;5113976;28;20038;-68
2023/06/24 07:35:23;;;;;;;6.25;4.82;;;29.20;60.70;;;;;;5114174;28;20031;-70
2023/06/24 07:37:49;;;;;;;6.90;4.47;;;29.30;60.70;;;;;;5114300;28;20039;-69
2023/06/24 07:40:15;;;;;;;8.77;4.60;;;29.10;60.60;;;;;;5114299;28;20042;-68
2023/06/24 07:42:41;;;;;;;5.70;4.25;;;29.20;60.60;;;;;;5114247;28;20103;-67
2023/06/24 07:45:07;;;;;;;7.53;4.45;;;29.10;60.70;;;;;;5113632;28;20052;-67
2023/06/24 07:47:33;;;;;;;4.47;3.92;;;29.10;60.80;;;;;;5113350;28;20027;-65
2023/06/24 07:49:59;;;;;;;8.52;4.43;;;29.10;60.80;;;;;;5113413;28;20328;-67
2023/06/24 07:52:26;;;;;;;8.45;3.95;;;29.10;60.90;;;;;;5113865;28;20437;-66
2023/06/24 07:54:52;;;;;;;5.95;4.18;;;29.20;60.90;;;;;;5112991;28;20443;-66
2023/06/24 07:57:18;;;;;;;5.97;3.95;;;29.10;60.90;;;;;;5114109;28;20071;-68
2023/06/24 07:59:44;;;;;;;5.65;4.05;;;29.10;60.80;;;;;;5113836;28;20020;-67
2023/06/24 08:02:10;;;;;;;5.25;4.32;;;29.30;60.80;;;;;;5112254;28;20031;-67
2023/06/24 08:04:36;;;;;;;10.07;4.35;;;29.10;61.40;;;;;;5113468;28;20083;-67
2023/06/24 08:07:04;;;;;;;11.63;4.10;;;29.20;61.30;;;;;;5112700;28;20085;-67
2023/06/24 08:09:30;;;;;;;7.20;4.65;;;29.20;61.30;;;;;;5112533;28;20035;-67
2023/06/24 08:11:56;;;;;;;5.78;4.03;;;29.00;61.10;;;;;;5113545;28;20042;-66
2023/06/24 08:14:22;;;;;;;7.45;3.85;;;29.20;61.20;;;;;;5113330;28;20027;-67
2023/06/24 08:16:48;;;;;;;7.32;4.25;;;29.20;61.20;;;;;;5113418;28;20039;-68
2023/06/24 08:19:14;;;;;;;5.80;4.32;;;29.20;61.10;;;;;;5113486;28;20078;-70
2023/06/24 08:21:40;;;;;;;6.65;3.53;;;29.20;60.80;;;;;;5110435;28;20114;-69
2023/06/24 08:24:07;;;;;;;9.70;3.97;;;29.20;60.80;;;;;;5113374;28;20052;-70
2023/06/24 08:26:33;;;;;;;5.95;3.80;;;29.10;61.00;;;;;;5113380;28;20035;-70
2023/06/24 08:28:59;;;;;;;4.75;3.53;;;29.10;61.10;;;;;;5113535;28;20031;-68
2023/06/24 08:31:26;;;;;;;6.72;3.92;;;29.20;61.30;;;;;;5111814;28;20479;-69
2023/06/24 08:33:56;;;;;;;4.97;4.18;;;29.00;61.30;;;;;;5113098;28;20035;-68
2023/06/24 08:36:25;;;;;;;7.85;3.97;;;29.10;61.30;;;;;;5113192;28;20043;-69
2023/06/24 08:38:51;;;;;;;7.25;4.10;;;29.10;61.40;;;;;;5111753;28;20028;-68
2023/06/24 08:41:17;;;;;;;6.13;4.45;;;29.10;61.60;;;;;;5113009;28;20030;-68
2023/06/24 08:43:43;;;;;;;10.85;4.40;;;29.10;61.70;;;;;;5094277;28;20061;-68
2023/06/24 08:46:09;;;;;;;4.57;3.28;;;29.10;61.70;;;;;;5112823;28;20035;-68
2023/06/24 08:48:40;;;;;;;7.10;3.63;;;29.10;61.70;;;;;;5110700;28;20043;-68
2023/06/24 08:51:08;;;;;;;6.75;4.18;;;29.10;61.50;;;;;;5111629;28;20032;-67
2023/06/24 08:53:37;;;;;;;7.18;3.65;;;29.00;61.50;;;;;;5112581;28;20038;-67
2023/06/24 08:56:04;;;;;;;5.57;5.00;;;28.90;60.80;;;;;;5112857;28;20027;-71
2023/06/24 08:58:30;;;;;;;8.48;5.70;;;29.10;63.60;;;;;;5112723;28;20040;-67
2023/06/24 09:00:56;;;;;;;9.40;6.38;;;29.30;64.90;;;;;;5112333;27;20505;-67
2023/06/24 09:03:23;;;;;;;8.32;5.30;;;29.60;67.40;;;;;;5112472;27;20391;-67
2023/06/24 09:05:48;;;;;;;6.22;4.65;;;29.60;64.40;;;;;;5110441;28;20054;-66
2023/06/24 09:08:18;;;;;;;7.03;5.15;;;29.80;62.80;;;;;;5110731;28;20024;-67
2023/06/24 09:10:44;;;;;;;7.90;5.50;;;29.70;59.80;;;;;;5111363;28;20035;-67
2023/06/24 09:13:10;;;;;;;8.20;5.63;;;29.50;59.20;;;;;;5112286;28;20043;-72
2023/06/24 09:15:37;;;;;;;6.20;4.93;;;29.60;59.80;;;;;;5111712;28;20094;-68
2023/06/24 09:18:04;;;;;;;6.57;4.68;;;29.40;59.70;;;;;;5112296;28;20459;-68
2023/06/24 09:20:32;;;;;;;7.65;4.60;;;29.30;59.40;;;;;;5112296;28;20088;-68
2023/06/24 09:22:59;;;;;;;5.03;3.55;;;29.40;59.20;;;;;;5110787;28;20063;-67
2023/06/24 09:25:25;;;;;;;7.40;4.70;;;29.50;59.50;;;;;;5112082;28;20649;-67
2023/06/24 09:27:52;;;;;;;8.38;4.55;;;29.50;59.60;;;;;;5112097;28;20712;-67
2023/06/24 09:30:20;;;;;;;4.38;3.70;;;29.50;59.70;;;;;;5111778;28;20083;-66
2023/06/24 09:32:48;;;;;;;4.97;3.65;;;29.40;59.70;;;;;;5110758;28;20032;-67
2023/06/24 09:35:16;;;;;;;7.35;4.18;;;29.50;60.10;;;;;;5109807;28;20136;-68
2023/06/24 09:37:42;;;;;;;5.13;3.67;;;29.60;60.00;;;;;;5112195;28;20487;-68
2023/06/24 09:40:10;;;;;;;5.85;3.97;;;29.40;59.90;;;;;;5093866;28;20415;-67
2023/06/24 09:42:36;;;;;;;5.03;4.18;;;29.50;59.90;;;;;;5109859;28;20508;-67
2023/06/24 09:45:06;;;;;;;5.20;3.63;;;29.50;59.90;;;;;;5110579;28;20067;-68
2023/06/24 09:47:33;;;;;;;5.53;4.18;;;29.40;60.00;;;;;;5111898;28;20047;-68
2023/06/24 09:49:59;;;;;;;6.53;4.35;;;29.50;60.00;;;;;;5111852;28;20107;-68
2023/06/24 09:52:26;;;;;;;6.05;3.85;;;29.60;60.00;;;;;;5111793;28;20137;-67
2023/06/24 09:54:54;;;;;;;6.03;3.58;;;29.60;60.00;;;;;;5110350;28;20027;-67
2023/06/24 09:57:31;;;;;;;5.28;3.72;;;29.50;60.00;;;;;;5111664;28;20043;-67
2023/06/24 10:00:37;;;;;;;5.72;3.35;;;29.40;60.00;;;;;;5111858;28;20042;-67
2023/06/24 10:03:04;;;;;;;5.30;3.55;;;29.60;60.00;;;;;;5088460;28;20125;-67
2023/06/24 10:05:30;;;;;;;5.75;3.70;;;29.70;60.00;;;;;;5088331;28;20042;-67
2023/06/24 10:07:56;;;;;;;6.22;3.45;;;29.80;60.00;;;;;;5088803;28;20048;-67
2023/06/24 10:10:22;;;;;;;4.63;3.80;;;29.60;60.00;;;;;;5071877;28;20453;-66
2023/06/24 10:12:48;;;;;;;4.90;4.40;;;29.60;59.90;;;;;;5087785;28;20134;-67
2023/06/24 10:15:15;;;;;;;4.13;3.40;;;29.60;59.90;;;;;;5088495;28;20155;-71
2023/06/24 10:17:41;;;;;;;7.13;4.32;;;29.60;59.50;;;;;;5088382;28;20117;-72
2023/06/24 10:20:07;;;;;;;6.80;4.57;;;29.60;59.30;;;;;;5054222;28;20495;-68
2023/06/24 10:22:35;;;;;;;9.27;5.05;;;29.80;61.50;;;;;;5027889;28;20041;-68
2023/06/24 10:25:05;;;;;;;14.88;6.68;;;29.90;65.80;;;;;;5028331;28;20128;-69
2023/06/24 10:27:39;;;;;;;10.70;5.03;;;30.10;62.10;;;;;;5028344;28;20187;-69
2023/06/24 10:30:07;;;;;;;6.22;4.70;;;30.20;63.50;;;;;;5028304;28;20079;-69
2023/06/24 10:32:42;;;;;;;11.40;4.88;;;30.10;62.60;;;;;;4972694;28;20134;-68
2023/06/24 10:35:25;;;;;;;5.22;3.95;;;30.30;60.90;;;;;;5008287;28;20416;-73
2023/06/24 10:37:57;;;;;;;4.82;3.88;;;30.20;60.30;;;;;;5008250;28;20096;-71
2023/06/24 10:40:39;;;;;;;10.82;4.25;;;30.10;60.30;;;;;;5017649;28;20048;-70
2023/06/24 10:43:25;;;;;;;6.55;4.13;;;30.10;60.10;;;;;;5027781;28;20087;-68
2023/06/24 10:45:53;;;;;;;8.68;4.10;;;30.10;60.10;;;;;;5028430;28;20052;-67
2023/06/24 10:48:20;;;;;;;11.55;4.63;;;30.20;61.40;;;;;;5028263;28;20132;-71
2023/06/24 10:50:46;;;;;;;6.50;4.90;;;30.20;60.50;;;;;;5028166;28;20412;-67
2023/06/24 10:53:13;;;;;;;9.52;5.03;;;30.30;61.40;;;;;;5032233;28;20047;-68
2023/06/24 10:55:40;;;;;;;6.32;3.80;;;30.30;61.70;;;;;;5088612;28;20047;-68
2023/06/24 10:58:09;;;;;;;7.40;3.78;;;30.40;64.00;;;;;;5088109;28;20518;-68
2023/06/24 11:00:35;;;;;;;7.45;4.00;;;30.30;61.20;;;;;;5088489;28;20403;-69
2023/06/24 11:03:33;;;;;;;5.82;3.55;;;30.30;60.90;;;;;;5077149;28;20040;-68
2023/06/24 11:06:03;;;;;;;11.90;4.38;;;30.10;60.60;;;;;;5088163;28;20048;-67
2023/06/24 11:08:29;;;;;;;6.18;4.05;;;30.20;60.40;;;;;;5088387;28;20054;-67
2023/06/24 11:10:55;;;;;;;7.57;4.20;;;30.20;60.30;;;;;;5088113;28;20462;-68
2023/06/24 11:13:21;;;;;;;5.32;4.07;;;30.40;60.40;;;;;;5037658;28;20036;-68
2023/06/24 11:15:47;;;;;;;8.88;4.57;;;30.20;60.30;;;;;;5088372;28;20051;-68
2023/06/24 11:18:13;;;;;;;4.65;3.65;;;30.30;60.40;;;;;;5087936;28;20035;-67
2023/06/24 11:20:40;;;;;;;7.57;4.00;;;30.20;60.30;;;;;;5088032;28;20186;-68
2023/06/24 11:23:10;;;;;;;5.25;3.75;;;30.10;60.20;;;;;;5089968;28;20376;-68
2023/06/24 11:25:41;;;;;;;5.68;3.97;;;30.30;60.20;;;;;;5091673;28;20040;-68
2023/06/24 11:28:13;;;;;;;4.82;3.88;;;30.20;60.30;;;;;;5091649;28;20032;-68
2023/06/24 11:30:39;;;;;;;5.43;3.70;;;30.10;60.30;;;;;;5091574;28;20040;-66
2023/06/24 11:33:05;;;;;;;5.18;3.65;;;30.00;60.40;;;;;;5091636;28;20089;-66
2023/06/24 11:35:35;;;;;;;5.15;3.80;;;30.10;60.50;;;;;;5091412;28;20105;-67
2023/06/24 11:38:01;;;;;;;6.15;3.25;;;30.20;60.50;;;;;;5074587;28;20040;-69
2023/06/24 11:40:27;;;;;;;5.30;3.60;;;30.20;60.50;;;;;;5091547;28;20051;-68
2023/06/24 11:42:53;;;;;;;7.20;4.00;;;30.00;60.40;;;;;;5093011;28;20044;-73
2023/06/24 11:45:21;;;;;;;4.55;3.50;;;30.10;60.40;;;;;;5093645;28;20044;-70
2023/06/24 11:47:48;;;;;;;6.00;3.47;;;30.10;60.40;;;;;;5102685;28;20107;-70
2023/06/24 11:50:14;;;;;;;7.10;4.00;;;30.20;60.50;;;;;;5112937;28;20031;-70
2023/06/24 11:52:52;;;;;;;6.28;3.88;;;30.20;60.60;;;;;;5113049;28;20030;-70
2023/06/24 11:55:23;;;;;;;6.60;3.63;;;30.10;60.60;;;;;;5113917;28;20047;-69
2023/06/24 11:58:02;;;;;;;6.47;3.42;;;30.00;60.60;;;;;;5113928;28;20042;-70
2023/06/24 12:00:29;;;;;;;4.50;3.67;;;30.10;60.70;;;;;;5112870;28;20038;-70
2023/06/24 12:03:04;;;;;;;3.78;3.08;;;30.10;60.70;;;;;;5113011;28;20039;-74
2023/06/24 12:05:32;;;;;;;6.95;3.45;;;30.10;60.80;;;;;;5114119;28;20110;-72
2023/06/24 12:08:05;;;;;;;7.03;3.53;;;30.00;60.90;;;;;;5113952;28;20032;-73
2023/06/24 12:10:33;;;;;;;4.03;3.13;;;30.00;60.90;;;;;;5113866;28;20375;-74
2023/06/24 12:13:00;;;;;;;4.72;3.70;;;30.00;61.00;;;;;;5114070;28;20032;-73
2023/06/24 12:15:27;;;;;;;4.30;3.15;;;30.00;61.00;;;;;;5113536;28;20344;-69
2023/06/24 12:17:53;;;;;;;6.13;3.75;;;29.90;60.40;;;;;;5110717;28;20402;-70
2023/06/24 12:20:19;;;;;;;5.68;4.15;;;29.90;60.60;;;;;;5113430;28;20874;-70
2023/06/24 12:22:46;;;;;;;3.70;3.25;;;30.00;61.10;;;;;;5113711;28;20032;-70
2023/06/24 12:25:12;;;;;;;8.57;4.00;;;30.00;61.00;;;;;;5113306;28;20390;-71
2023/06/24 12:27:39;;;;;;;4.97;3.58;;;30.00;60.90;;;;;;5113795;28;20110;-71
2023/06/24 12:30:07;;;;;;;3.72;3.00;;;29.90;60.30;;;;;;5113546;28;20063;-71
2023/06/24 12:32:33;;;;;;;5.40;3.08;;;29.90;60.40;;;;;;5113311;28;20067;-70
2023/06/24 12:34:59;;;;;;;4.53;3.47;;;30.00;61.00;;;;;;5112678;28;20062;-76
2023/06/24 12:37:28;;;;;;;5.15;3.83;;;29.90;60.40;;;;;;5111806;28;20453;-76
2023/06/24 12:39:54;;;;;;;11.02;3.50;;;29.70;60.40;;;;;;5113673;28;20043;-75
2023/06/24 12:42:20;;;;;;;15.23;4.55;;;29.80;60.60;;;;;;5113252;28;20024;-75
2023/06/24 12:44:46;;;;;;;8.20;3.92;;;29.80;61.90;;;;;;5113213;28;20092;-70
2023/06/24 12:47:12;;;;;;;7.00;3.47;;;29.70;63.50;;;;;;5113173;28;20491;-69
2023/06/24 12:49:38;;;;;;;4.90;3.05;;;29.80;62.80;;;;;;5113152;28;20035;-69